createdAt,value
2022-09-28T00:02:16.196Z,19.00
2022-09-28T00:04:44.721Z,19.00
2022-09-28T00:07:13.102Z,17.13
2022-09-28T00:09:41.692Z,14.90
2022-09-28T00:12:11.383Z,16.97
2022-09-28T00:14:42.055Z,17.77
2022-09-28T00:17:11.816Z,12.90
2022-09-28T00:19:40.338Z,10.20
2022-09-28T00:22:08.899Z,9.03
2022-09-28T00:24:37.721Z,8.90
2022-09-28T00:27:06.282Z,9.63
2022-09-28T00:29:36.464Z,8.17
2022-09-28T00:32:09.426Z,8.23
2022-09-28T00:34:49.064Z,8.03
2022-09-28T00:37:23.704Z,9.30
2022-09-28T00:40:01.238Z,8.90
2022-09-28T00:42:31.812Z,8.80
2022-09-28T00:45:06.012Z,8.70
2022-09-28T00:47:51.099Z,7.67
2022-09-28T00:50:28.822Z,6.40
2022-09-28T00:53:07.389Z,6.83
2022-09-28T00:55:43.427Z,7.40
2022-09-28T00:58:21.440Z,6.37
2022-09-28T01:00:54.069Z,7.60
2022-09-28T01:03:29.736Z,7.83
2022-09-28T01:06:08.226Z,6.53
2022-09-28T01:08:39.859Z,5.87
2022-09-28T01:11:08.486Z,6.25
2022-09-28T01:13:37.576Z,8.80
2022-09-28T01:16:12.842Z,7.77
2022-09-28T01:18:53.243Z,6.00
2022-09-28T01:21:24.806Z,6.93
2022-09-28T01:24:16.912Z,7.00
2022-09-28T01:26:52.582Z,6.27
2022-09-28T01:29:32.958Z,7.03
2022-09-28T01:32:10.471Z,5.90
2022-09-28T01:34:43.740Z,5.83
2022-09-28T01:39:48.688Z,7.20
2022-09-28T01:42:22.144Z,9.07
2022-09-28T01:44:54.738Z,6.65
2022-09-28T01:47:26.630Z,7.77
2022-09-28T01:50:00.820Z,6.20
2022-09-28T01:55:07.329Z,5.17
2022-09-28T01:57:42.330Z,7.37
2022-09-28T02:00:16.235Z,10.47
2022-09-28T02:05:23.724Z,11.47
2022-09-28T02:07:59.236Z,7.07
2022-09-28T02:10:33.875Z,6.63
2022-09-28T02:15:42.170Z,7.20
2022-09-28T02:18:11.082Z,12.17
2022-09-28T02:20:42.550Z,8.27
2022-09-28T02:23:11.129Z,7.27
2022-09-28T02:25:45.219Z,6.50
2022-09-28T02:28:14.964Z,6.83
2022-09-28T02:30:45.328Z,6.60
2022-09-28T02:33:18.638Z,7.03
2022-09-28T02:35:49.475Z,7.13
2022-09-28T02:38:19.418Z,8.63
2022-09-28T02:40:57.933Z,8.00
2022-09-28T02:43:38.210Z,9.33
2022-09-28T02:46:16.154Z,8.83
2022-09-28T02:49:20.331Z,8.77
2022-09-28T02:52:08.237Z,9.10
2022-09-28T02:54:58.011Z,7.97
2022-09-28T02:57:37.380Z,10.63
2022-09-28T03:00:11.495Z,10.60
2022-09-28T03:02:50.174Z,10.83
2022-09-28T03:05:21.981Z,11.33
2022-09-28T03:07:57.585Z,7.67
2022-09-28T03:10:35.262Z,9.20
2022-09-28T03:13:05.522Z,8.40
2022-09-28T03:15:36.128Z,8.90
2022-09-28T03:18:05.796Z,8.90
2022-09-28T03:20:34.735Z,8.43
2022-09-28T03:23:24.927Z,9.83
2022-09-28T03:25:54.221Z,8.97
2022-09-28T03:28:23.475Z,9.33
2022-09-28T03:30:52.374Z,10.93
2022-09-28T03:33:26.844Z,10.33
2022-09-28T03:35:55.452Z,10.60
2022-09-28T03:38:24.960Z,11.83
2022-09-28T03:40:59.334Z,11.20
2022-09-28T03:43:29.828Z,9.43
2022-09-28T03:46:01.723Z,9.77
2022-09-28T03:48:37.120Z,12.65
2022-09-28T03:51:09.546Z,11.73
2022-09-28T03:53:40.096Z,12.90
2022-09-28T03:56:12.585Z,13.50
2022-09-28T03:58:41.454Z,16.70
2022-09-28T04:01:16.914Z,15.03
2022-09-28T04:03:47.578Z,13.67
2022-09-28T04:06:16.449Z,13.93
2022-09-28T04:08:45.059Z,14.27
2022-09-28T04:11:13.654Z,13.57
2022-09-28T04:13:42.771Z,17.70
2022-09-28T04:16:15.664Z,14.17
2022-09-28T04:18:48.357Z,14.03
2022-09-28T04:21:38.118Z,15.40
2022-09-28T04:24:11.833Z,14.27
2022-09-28T04:26:40.480Z,14.73
2022-09-28T04:29:16.784Z,14.83
2022-09-28T04:31:57.509Z,16.13
2022-09-28T04:34:51.292Z,16.27
2022-09-28T04:37:19.746Z,16.47
2022-09-28T04:39:48.718Z,14.23
2022-09-28T04:42:20.306Z,18.45
2022-09-28T04:44:50.949Z,17.57
2022-09-28T04:47:19.439Z,15.40
2022-09-28T04:49:53.822Z,15.90
2022-09-28T04:52:28.259Z,17.77
2022-09-28T04:54:56.802Z,18.47
2022-09-28T04:57:27.430Z,14.27
2022-09-28T04:59:56.395Z,12.63
2022-09-28T05:02:24.883Z,14.33
2022-09-28T05:04:54.818Z,13.97
2022-09-28T05:07:42.065Z,17.53
2022-09-28T05:10:10.982Z,16.13
2022-09-28T05:12:41.265Z,18.47
2022-09-28T05:15:11.713Z,16.73
2022-09-28T05:17:40.297Z,14.73
2022-09-28T05:20:21.974Z,15.00
2022-09-28T05:22:50.447Z,14.23
2022-09-28T05:25:19.475Z,13.50
2022-09-28T05:28:09.217Z,14.07
2022-09-28T05:31:09.697Z,15.70
2022-09-28T05:33:53.231Z,16.17
2022-09-28T05:36:21.875Z,16.13
2022-09-28T05:38:51.241Z,15.90
2022-09-28T05:41:20.445Z,15.00
2022-09-28T05:43:51.109Z,18.77
2022-09-28T05:46:23.346Z,14.03
2022-09-28T05:48:53.706Z,12.60
2022-09-28T05:51:24.890Z,13.33
2022-09-28T05:53:55.929Z,18.10
2022-09-28T05:56:29.517Z,14.98
2022-09-28T05:58:58.869Z,16.50
2022-09-28T06:01:31.050Z,15.50
2022-09-28T06:04:03.057Z,14.43
2022-09-28T06:06:36.117Z,13.37
2022-09-28T06:09:07.359Z,13.53
2022-09-28T06:12:00.548Z,12.30
2022-09-28T06:14:49.587Z,12.93
2022-09-28T06:17:18.412Z,12.60
2022-09-28T06:19:53.068Z,12.15
2022-09-28T06:22:27.866Z,12.00
2022-09-28T06:25:02.562Z,12.83
2022-09-28T06:27:31.575Z,13.77
2022-09-28T06:30:03.394Z,12.23
2022-09-28T06:32:32.223Z,12.60
2022-09-28T06:35:02.033Z,15.57
2022-09-28T06:37:32.553Z,13.37
2022-09-28T06:40:03.145Z,15.23
2022-09-28T06:42:32.748Z,12.83
2022-09-28T06:45:24.049Z,15.77
2022-09-28T06:48:24.871Z,12.67
2022-09-28T06:50:54.059Z,13.37
2022-09-28T06:53:29.181Z,11.60
2022-09-28T06:56:02.289Z,11.57
2022-09-28T06:58:31.871Z,13.50
2022-09-28T07:01:01.671Z,11.47
2022-09-28T07:03:35.355Z,13.62
2022-09-28T07:06:25.688Z,14.73
2022-09-28T07:09:31.411Z,13.53
2022-09-28T07:12:14.166Z,12.23
2022-09-28T07:14:56.001Z,12.30
2022-09-28T07:17:25.982Z,10.20
2022-09-28T07:19:59.047Z,16.03
2022-09-28T07:22:41.526Z,13.17
2022-09-28T07:25:14.469Z,16.90
2022-09-28T07:28:22.045Z,13.83
2022-09-28T07:31:11.457Z,8.97
2022-09-28T07:33:55.711Z,10.43
2022-09-28T07:36:34.923Z,12.27
2022-09-28T07:39:05.132Z,10.65
2022-09-28T07:41:35.712Z,10.40
2022-09-28T07:44:08.455Z,15.83
2022-09-28T07:46:38.819Z,10.10
2022-09-28T07:49:14.983Z,11.43
2022-09-28T07:52:10.275Z,9.87
2022-09-28T07:54:51.633Z,13.33
2022-09-28T07:57:39.466Z,11.63
2022-09-28T08:00:22.292Z,10.50
2022-09-28T08:02:51.082Z,10.50
2022-09-28T08:05:24.058Z,9.00
2022-09-28T08:07:52.891Z,9.67
2022-09-28T08:10:22.078Z,11.47
2022-09-28T08:13:08.807Z,12.20
2022-09-28T08:16:13.724Z,11.43
2022-09-28T08:18:50.701Z,9.20
2022-09-28T08:21:38.731Z,8.40
2022-09-28T08:24:09.882Z,11.00
2022-09-28T08:26:38.797Z,7.23
2022-09-28T08:29:10.152Z,8.30
2022-09-28T08:31:50.969Z,10.60
2022-09-28T08:34:41.342Z,10.60
2022-09-28T08:37:39.303Z,7.90
2022-09-28T08:40:28.454Z,7.30
2022-09-28T08:43:24.383Z,10.20
2022-09-28T08:46:29.041Z,8.73
2022-09-28T08:49:30.571Z,8.53
2022-09-28T08:52:22.931Z,8.77
2022-09-28T08:55:02.489Z,9.10
2022-09-28T08:57:48.114Z,7.93
2022-09-28T09:00:21.799Z,7.03
2022-09-28T09:02:50.549Z,8.27
2022-09-28T09:05:28.724Z,6.67
2022-09-28T09:08:14.620Z,11.50
2022-09-28T09:10:51.003Z,6.97
2022-09-28T09:13:55.526Z,6.27
2022-09-28T09:16:40.166Z,7.27
2022-09-28T09:19:41.416Z,6.03
2022-09-28T09:22:36.626Z,6.67
2022-09-28T09:27:57.694Z,7.03
2022-09-28T09:30:31.906Z,5.37
2022-09-28T09:36:18.916Z,5.53
2022-09-28T09:39:24.749Z,6.20
2022-09-28T09:45:20.015Z,5.13
2022-09-28T09:48:15.001Z,4.37
2022-09-28T09:50:51.145Z,4.90
2022-09-28T09:53:28.341Z,6.13
2022-09-28T09:56:03.080Z,8.03
2022-09-28T09:58:51.743Z,9.00
2022-09-28T10:01:40.337Z,4.53
2022-09-28T10:04:46.861Z,5.83
2022-09-28T10:07:25.712Z,7.53
2022-09-28T10:10:02.999Z,8.50
2022-09-28T10:12:55.572Z,6.20
2022-09-28T10:15:27.658Z,4.87
2022-09-28T10:18:27.391Z,5.17
2022-09-28T10:21:14.331Z,6.67
2022-09-28T10:23:56.887Z,5.43
2022-09-28T10:26:35.125Z,4.30
2022-09-28T10:29:12.016Z,8.27
2022-09-28T10:31:43.959Z,6.03
2022-09-28T10:34:29.989Z,4.83
2022-09-28T10:37:07.447Z,5.07
2022-09-28T10:39:58.080Z,5.83
2022-09-28T10:42:37.455Z,3.63
2022-09-28T10:45:22.002Z,7.20
2022-09-28T10:47:51.144Z,3.57
2022-09-28T10:50:29.333Z,4.17
2022-09-28T10:53:19.550Z,6.03
2022-09-28T10:56:28.745Z,5.20
2022-09-28T10:59:24.056Z,5.70
2022-09-28T11:01:58.022Z,6.83
2022-09-28T11:04:35.909Z,7.17
2022-09-28T11:07:15.333Z,5.17
2022-09-28T11:09:51.095Z,5.60
2022-09-28T11:12:25.662Z,4.30
2022-09-28T11:15:02.627Z,8.90
2022-09-28T11:17:38.110Z,6.63
2022-09-28T11:20:35.105Z,7.43
2022-09-28T11:23:22.132Z,3.47
2022-09-28T11:26:07.598Z,7.07
2022-09-28T11:28:38.924Z,6.65
2022-09-28T11:31:15.901Z,2.47
2022-09-28T11:34:07.569Z,3.50
2022-09-28T11:37:15.356Z,4.23
2022-09-28T11:39:54.282Z,3.67
2022-09-28T11:42:33.323Z,5.20
2022-09-28T11:45:18.316Z,4.67
2022-09-28T11:47:54.047Z,7.30
2022-09-28T11:50:31.018Z,3.93
2022-09-28T11:53:20.241Z,6.97
2022-09-28T11:55:56.602Z,4.23
2022-09-28T11:58:30.885Z,5.87
2022-09-28T12:01:07.971Z,3.23
2022-09-28T12:04:02.509Z,3.93
2022-09-28T12:06:37.504Z,4.43
2022-09-28T12:09:19.500Z,4.70
2022-09-28T12:12:24.212Z,9.00
2022-09-28T12:14:59.755Z,3.60
2022-09-28T12:17:32.459Z,3.90
2022-09-28T12:20:12.343Z,4.13
2022-09-28T12:22:47.196Z,3.33
2022-09-28T12:25:21.065Z,3.00
2022-09-28T12:27:56.330Z,4.90
2022-09-28T12:30:33.558Z,3.83
2022-09-28T12:33:08.771Z,6.33
2022-09-28T12:35:48.543Z,4.50
2022-09-28T12:38:37.828Z,3.07
2022-09-28T12:41:19.290Z,4.23
2022-09-28T12:44:08.656Z,3.63
2022-09-28T12:46:54.044Z,2.93
2022-09-28T12:50:27.292Z,3.73
2022-09-28T12:55:43.677Z,2.83
2022-09-28T12:58:28.958Z,3.37
2022-09-28T13:01:13.228Z,6.47
2022-09-28T13:04:05.085Z,4.60
2022-09-28T13:06:48.723Z,3.75
2022-09-28T13:09:23.371Z,2.83
2022-09-28T13:12:18.754Z,3.00
2022-09-28T13:15:24.418Z,4.17
2022-09-28T13:18:07.434Z,5.70
2022-09-28T13:20:54.242Z,4.83
2022-09-28T13:23:26.214Z,4.60
2022-09-28T13:26:00.444Z,3.63
2022-09-28T13:28:31.226Z,3.30
2022-09-28T13:31:02.792Z,3.03
2022-09-28T13:33:36.112Z,2.87
2022-09-28T13:36:25.998Z,3.92
2022-09-28T13:38:58.894Z,1.97
2022-09-28T13:41:31.294Z,3.23
2022-09-28T13:44:24.190Z,3.00
2022-09-28T13:47:08.111Z,4.37
2022-09-28T13:49:50.199Z,3.77
2022-09-28T13:52:34.346Z,7.60
2022-09-28T13:55:24.488Z,2.60
2022-09-28T13:58:00.938Z,3.10
2022-09-28T14:00:36.265Z,8.07
2022-09-28T14:03:23.015Z,2.63
2022-09-28T14:06:12.082Z,4.17
2022-09-28T14:09:04.892Z,5.23
2022-09-28T14:11:54.077Z,3.63
2022-09-28T14:14:29.057Z,2.87
2022-09-28T14:17:50.626Z,2.53
2022-09-28T14:20:26.210Z,2.77
2022-09-28T14:23:25.213Z,4.27
2022-09-28T14:26:07.536Z,2.97
2022-09-28T14:28:49.579Z,3.83
2022-09-28T14:31:27.537Z,4.83
2022-09-28T14:33:59.490Z,5.37
2022-09-28T14:36:55.422Z,5.45
2022-09-28T14:39:49.102Z,3.27
2022-09-28T14:42:23.256Z,3.40
2022-09-28T14:45:37.978Z,6.30
2022-09-28T14:48:37.933Z,3.43
2022-09-28T14:52:20.205Z,3.90
2022-09-28T14:55:00.592Z,4.23
2022-09-28T14:57:33.199Z,7.20
2022-09-28T15:00:24.382Z,2.80
2022-09-28T15:05:47.229Z,2.57
2022-09-28T15:08:22.330Z,4.77
2022-09-28T15:10:52.890Z,5.63
2022-09-28T15:13:25.714Z,3.40
2022-09-28T15:16:03.212Z,3.40
2022-09-28T15:19:09.885Z,3.80
2022-09-28T15:21:40.878Z,3.93
2022-09-28T15:24:31.822Z,2.67
2022-09-28T15:27:02.102Z,3.23
2022-09-28T15:29:32.945Z,5.13
2022-09-28T15:32:03.488Z,3.57
2022-09-28T15:34:54.507Z,4.27
2022-09-28T15:37:29.091Z,3.00
2022-09-28T15:40:00.779Z,4.67
2022-09-28T15:42:36.703Z,5.53
2022-09-28T15:45:25.169Z,4.17
2022-09-28T15:47:58.606Z,6.93
2022-09-28T15:50:36.371Z,6.63
2022-09-28T15:53:06.529Z,6.15
2022-09-28T15:55:42.427Z,5.23
2022-09-28T15:58:18.723Z,6.53
2022-09-28T16:00:49.546Z,6.10
2022-09-28T16:03:28.489Z,7.40
2022-09-28T16:06:10.714Z,7.70
2022-09-28T16:08:42.272Z,7.50
2022-09-28T16:11:16.860Z,6.90
2022-09-28T16:14:05.651Z,6.60
2022-09-28T16:16:38.054Z,5.53
2022-09-28T16:19:06.993Z,7.10
2022-09-28T16:21:45.766Z,10.00
2022-09-28T16:24:23.295Z,7.47
2022-09-28T16:26:59.523Z,7.33
2022-09-28T16:29:35.272Z,10.57
2022-09-28T16:32:37.188Z,8.87
2022-09-28T16:35:21.156Z,9.40
2022-09-28T16:37:57.333Z,8.17
2022-09-28T16:40:30.454Z,7.33
2022-09-28T16:43:04.385Z,8.10
2022-09-28T16:45:36.078Z,7.60
2022-09-28T16:48:25.055Z,6.40
2022-09-28T16:50:54.187Z,6.93
2022-09-28T16:53:38.501Z,6.67
2022-09-28T16:56:12.174Z,12.40
2022-09-28T16:58:48.761Z,10.93
2022-09-28T17:01:17.435Z,9.73
2022-09-28T17:03:48.053Z,10.40
2022-09-28T17:06:20.866Z,11.57
2022-09-28T17:08:51.181Z,12.47
2022-09-28T17:11:24.438Z,12.17
2022-09-28T17:13:58.749Z,10.67
2022-09-28T17:19:24.624Z,13.47
2022-09-28T17:21:53.470Z,10.10
2022-09-28T17:24:22.311Z,16.55
2022-09-28T17:26:53.032Z,13.63
2022-09-28T17:29:23.363Z,8.90
2022-09-28T17:31:54.808Z,7.50
2022-09-28T17:34:29.540Z,8.63
2022-09-28T17:37:01.111Z,14.10
2022-09-28T17:39:31.322Z,11.33
2022-09-28T17:42:00.000Z,11.50
2022-09-28T17:44:28.892Z,11.83
2022-09-28T17:46:58.907Z,10.30
2022-09-28T17:49:29.166Z,12.30
2022-09-28T17:52:00.328Z,10.03
2022-09-28T17:54:29.327Z,12.90
2022-09-28T17:56:58.909Z,8.73
2022-09-28T17:59:28.393Z,13.20
2022-09-28T18:02:02.376Z,10.93
2022-09-28T18:04:51.297Z,13.60
2022-09-28T18:07:33.826Z,11.13
2022-09-28T18:10:12.507Z,12.17
2022-09-28T18:12:44.872Z,10.07
2022-09-28T18:15:18.373Z,9.53
2022-09-28T18:17:47.990Z,9.13
2022-09-28T18:20:17.934Z,14.40
2022-09-28T18:22:47.288Z,12.63
2022-09-28T18:25:19.871Z,14.13
2022-09-28T18:27:49.119Z,16.50
2022-09-28T18:30:21.197Z,11.43
2022-09-28T18:32:55.252Z,11.73
2022-09-28T18:35:24.925Z,14.97
2022-09-28T18:37:54.838Z,13.93
2022-09-28T18:40:24.155Z,13.03
2022-09-28T18:42:54.981Z,8.73
2022-09-28T18:45:26.432Z,8.80
2022-09-28T18:47:55.479Z,8.90
2022-09-28T18:50:25.889Z,7.23
2022-09-28T18:53:10.881Z,5.93
2022-09-28T18:55:42.365Z,6.70
2022-09-28T18:58:15.860Z,6.77
2022-09-28T19:00:45.104Z,8.47
2022-09-28T19:03:14.985Z,4.43
2022-09-28T19:05:44.727Z,5.73
2022-09-28T19:08:13.556Z,4.23
2022-09-28T19:10:44.210Z,4.07
2022-09-28T19:13:17.573Z,4.75
2022-09-28T19:15:49.679Z,5.67
2022-09-28T19:18:19.092Z,4.73
2022-09-28T19:20:48.023Z,5.10
2022-09-28T19:23:19.605Z,6.00
2022-09-28T19:25:48.300Z,6.10
2022-09-28T19:28:18.647Z,16.80
2022-09-28T19:30:56.767Z,11.40
2022-09-28T19:33:25.908Z,11.80
2022-09-28T19:36:00.611Z,38.70
2022-09-28T19:38:35.065Z,35.30
2022-09-28T19:41:10.647Z,26.70
2022-09-28T19:43:41.867Z,18.57
2022-09-28T19:46:12.653Z,16.80
2022-09-28T19:48:41.927Z,32.07
2022-09-28T19:51:11.526Z,23.77
2022-09-28T19:53:40.610Z,20.20
2022-09-28T19:56:10.671Z,16.50
2022-09-28T19:58:40.206Z,14.40
2022-09-28T20:01:10.158Z,11.53
2022-09-28T20:03:39.160Z,9.70
2022-09-28T20:06:16.436Z,8.97
2022-09-28T20:08:46.458Z,8.70
2022-09-28T20:11:15.234Z,7.77
2022-09-28T20:13:43.910Z,6.47
2022-09-28T20:16:14.702Z,6.03
2022-09-28T20:18:50.100Z,9.23
2022-09-28T20:21:25.170Z,8.37
2022-09-28T20:23:56.839Z,7.30
2022-09-28T20:26:27.006Z,8.83
2022-09-28T20:28:58.438Z,8.40
2022-09-28T20:31:28.054Z,7.43
2022-09-28T20:33:57.113Z,11.83
2022-09-28T20:36:26.117Z,9.23
2022-09-28T20:38:57.775Z,10.40
2022-09-28T20:41:27.153Z,9.93
2022-09-28T20:44:01.577Z,9.13
2022-09-28T20:46:37.670Z,12.67
2022-09-28T20:49:07.344Z,10.53
2022-09-28T20:51:36.922Z,11.63
2022-09-28T20:54:05.788Z,10.40
2022-09-28T20:56:38.436Z,9.73
2022-09-28T20:59:11.501Z,10.00
2022-09-28T21:01:40.817Z,10.33
2022-09-28T21:04:11.865Z,11.03
2022-09-28T21:06:41.992Z,13.37
2022-09-28T21:09:12.915Z,12.63
2022-09-28T21:11:41.524Z,12.60
2022-09-28T21:14:13.330Z,12.35
2022-09-28T21:16:41.826Z,14.87
2022-09-28T21:19:13.084Z,13.20
2022-09-28T21:21:42.125Z,17.40
2022-09-28T21:24:12.566Z,13.83
2022-09-28T21:26:41.361Z,15.47
2022-09-28T21:29:13.657Z,18.90
2022-09-28T21:31:45.416Z,15.27
2022-09-28T21:34:18.692Z,15.27
2022-09-28T21:36:50.605Z,13.05
2022-09-28T21:39:20.065Z,14.43
2022-09-28T21:41:49.045Z,14.20
2022-09-28T21:44:17.831Z,11.97
2022-09-28T21:46:46.541Z,26.70
2022-09-28T21:49:15.209Z,28.53
2022-09-28T21:51:46.453Z,23.93
2022-09-28T21:54:15.110Z,13.13
2022-09-28T21:56:43.911Z,13.40
2022-09-28T21:59:14.805Z,11.00
2022-09-28T22:01:43.747Z,17.87
2022-09-28T22:04:13.975Z,18.00
2022-09-28T22:09:14.537Z,11.30
2022-09-28T22:11:43.653Z,12.33
2022-09-28T22:14:14.633Z,9.20
2022-09-28T22:16:43.463Z,10.00
2022-09-28T22:19:13.032Z,11.50
2022-09-28T22:21:42.904Z,10.23
2022-09-28T22:24:12.728Z,10.30
2022-09-28T22:26:41.318Z,14.80
2022-09-28T22:29:13.111Z,12.70
2022-09-28T22:31:41.959Z,13.03
2022-09-28T22:34:12.975Z,11.50
2022-09-28T22:36:41.962Z,17.87
2022-09-28T22:39:11.017Z,16.67
2022-09-28T22:41:41.254Z,14.23
2022-09-28T22:44:10.165Z,31.57
2022-09-28T22:46:40.269Z,30.33
2022-09-28T22:49:12.825Z,24.53
2022-09-28T22:51:41.640Z,32.77
2022-09-28T22:54:16.011Z,44.33
2022-09-28T22:56:45.353Z,26.37
2022-09-28T22:59:14.454Z,26.37
2022-09-28T23:01:43.441Z,23.73
2022-09-28T23:04:13.873Z,16.63
2022-09-28T23:06:42.677Z,21.93
2022-09-28T23:09:12.317Z,24.17
2022-09-28T23:11:41.005Z,28.80
2022-09-28T23:14:12.842Z,26.13
2022-09-28T23:16:41.959Z,22.80
2022-09-28T23:19:11.307Z,15.80
2022-09-28T23:21:43.038Z,23.50
2022-09-28T23:24:13.035Z,25.40
2022-09-28T23:26:41.817Z,21.77
2022-09-28T23:29:12.919Z,18.67
2022-09-28T23:31:42.146Z,22.60
2022-09-28T23:34:11.513Z,32.30
2022-09-28T23:36:40.719Z,32.50
2022-09-28T23:39:12.404Z,26.43
2022-09-28T23:41:41.363Z,24.47
2022-09-28T23:44:10.397Z,22.57
2022-09-28T23:46:39.812Z,20.30
2022-09-28T23:49:08.459Z,21.37
2022-09-28T23:51:37.441Z,14.50
2022-09-28T23:54:07.009Z,16.23
2022-09-28T23:56:35.958Z,14.33
2022-09-28T23:59:04.753Z,15.50
